createdAt,value
2018-02-26T00:00:55.976Z,-4.13
2018-02-26T00:02:21.775Z,-4.19
2018-02-26T00:03:49.660Z,-4.24
2018-02-26T00:05:16.656Z,-4.27
2018-02-26T00:06:42.474Z,-4.29
2018-02-26T00:08:09.267Z,-4.32
2018-02-26T00:09:37.277Z,-4.34
2018-02-26T00:11:04.194Z,-4.40
2018-02-26T00:12:31.310Z,-4.42
2018-02-26T00:13:58.234Z,-4.44
2018-02-26T00:15:25.303Z,-4.47
2018-02-26T00:16:52.171Z,-4.49
2018-02-26T00:18:19.126Z,-4.49
2018-02-26T00:19:45.096Z,-4.51
2018-02-26T00:21:12.752Z,-4.51
2018-02-26T00:22:38.775Z,-4.50
2018-02-26T00:24:06.515Z,-4.51
2018-02-26T00:25:32.369Z,-4.51
2018-02-26T00:27:00.321Z,-4.51
2018-02-26T00:28:26.355Z,-4.51
2018-02-26T00:29:54.366Z,-4.53
2018-02-26T00:31:21.540Z,-4.58
2018-02-26T00:32:48.306Z,-4.63
2018-02-26T00:34:15.527Z,-4.65
2018-02-26T00:35:42.299Z,-4.70
2018-02-26T00:37:08.307Z,-4.73
2018-02-26T00:38:36.265Z,-4.75
2018-02-26T00:40:02.896Z,-4.77
2018-02-26T00:41:29.799Z,-4.81
2018-02-26T00:42:56.798Z,-4.85
2018-02-26T00:44:23.861Z,-4.85
2018-02-26T00:45:49.935Z,-4.86
2018-02-26T00:47:17.042Z,-4.87
2018-02-26T00:48:45.003Z,-4.88
2018-02-26T00:50:10.757Z,-4.89
2018-02-26T00:51:38.631Z,-4.91
2018-02-26T00:53:05.774Z,-4.91
2018-02-26T00:54:32.609Z,-4.93
2018-02-26T00:55:59.661Z,-4.96
2018-02-26T00:57:25.561Z,-4.97
2018-02-26T00:58:53.540Z,-4.97
2018-02-26T01:00:20.482Z,-4.96
2018-02-26T01:01:46.464Z,-4.93
2018-02-26T01:03:14.396Z,-4.91
2018-02-26T01:04:41.427Z,-4.91
2018-02-26T01:06:07.430Z,-4.90
2018-02-26T01:07:34.244Z,-4.90
2018-02-26T01:09:01.344Z,-4.91
2018-02-26T01:10:29.364Z,-4.94
2018-02-26T01:11:56.296Z,-4.94
2018-02-26T01:13:23.256Z,-4.98
2018-02-26T01:14:50.122Z,-4.99
2018-02-26T01:16:17.192Z,-5.01
2018-02-26T01:17:44.417Z,-5.02
2018-02-26T01:19:10.319Z,-5.03
2018-02-26T01:20:37.208Z,-5.03
2018-02-26T01:22:04.867Z,-5.02
2018-02-26T01:23:31.907Z,-5.00
2018-02-26T01:24:58.942Z,-4.98
2018-02-26T01:26:25.791Z,-4.99
2018-02-26T01:27:52.831Z,-5.01
2018-02-26T01:29:19.855Z,-5.00
2018-02-26T01:30:46.643Z,-5.00
2018-02-26T01:32:12.777Z,-5.01
2018-02-26T01:33:39.609Z,-5.01
2018-02-26T01:35:07.433Z,-5.01
2018-02-26T01:36:33.251Z,-5.02
2018-02-26T01:38:01.247Z,-5.04
2018-02-26T01:39:27.052Z,-5.01
2018-02-26T01:40:55.193Z,-5.01
2018-02-26T01:42:22.072Z,-5.04
2018-02-26T01:43:48.139Z,-5.06
2018-02-26T01:45:15.224Z,-5.08
2018-02-26T01:46:43.119Z,-5.07
2018-02-26T01:48:10.105Z,-5.07
2018-02-26T01:49:36.934Z,-5.05
2018-02-26T01:51:03.280Z,-5.00
2018-02-26T01:52:29.138Z,-5.01
2018-02-26T01:53:57.085Z,-5.00
2018-02-26T01:55:24.137Z,-4.99
2018-02-26T01:56:51.161Z,-4.98
2018-02-26T01:58:18.028Z,-4.97
2018-02-26T01:59:44.914Z,-4.95
2018-02-26T02:01:10.802Z,-4.94
2018-02-26T02:02:38.776Z,-4.91
2018-02-26T02:04:04.616Z,-4.88
2018-02-26T02:05:32.487Z,-4.89
2018-02-26T02:07:04.498Z,-4.87
2018-02-26T02:08:25.320Z,-4.87
2018-02-26T02:09:55.272Z,-4.87
2018-02-26T02:11:20.188Z,-4.86
2018-02-26T02:12:47.270Z,-4.88
2018-02-26T02:14:14.144Z,-4.88
2018-02-26T02:15:40.211Z,-4.89
2018-02-26T02:17:07.872Z,-4.91
2018-02-26T02:18:33.634Z,-4.94
2018-02-26T02:20:00.436Z,-4.95
2018-02-26T02:21:28.361Z,-4.95
2018-02-26T02:22:55.498Z,-4.92
2018-02-26T02:24:21.203Z,-4.90
2018-02-26T02:25:49.306Z,-4.88
2018-02-26T02:27:16.220Z,-4.88
2018-02-26T02:28:43.457Z,-4.86
2018-02-26T02:30:10.347Z,-4.87
2018-02-26T02:31:37.268Z,-4.88
2018-02-26T02:33:03.192Z,-4.90
2018-02-26T02:34:30.170Z,-4.91
2018-02-26T02:35:57.102Z,-4.90
2018-02-26T02:37:25.161Z,-4.92
2018-02-26T02:38:52.154Z,-4.92
2018-02-26T02:40:18.912Z,-4.92
2018-02-26T02:41:45.573Z,-4.89
2018-02-26T02:43:12.470Z,-4.87
2018-02-26T02:44:39.442Z,-4.87
2018-02-26T02:46:06.193Z,-4.85
2018-02-26T02:47:33.088Z,-4.83
2018-02-26T02:49:00.006Z,-4.80
2018-02-26T02:50:27.055Z,-4.77
2018-02-26T02:51:53.878Z,-4.78
2018-02-26T02:53:20.842Z,-4.78
2018-02-26T02:54:47.698Z,-4.77
2018-02-26T02:56:14.746Z,-4.77
2018-02-26T02:57:41.701Z,-4.75
2018-02-26T02:59:07.570Z,-4.74
2018-02-26T03:00:35.705Z,-4.74
2018-02-26T03:02:02.483Z,-4.74
2018-02-26T03:03:29.589Z,-4.73
2018-02-26T03:04:56.477Z,-4.74
2018-02-26T03:06:22.402Z,-4.74
2018-02-26T03:07:50.458Z,-4.74
2018-02-26T03:09:17.387Z,-4.76
2018-02-26T03:10:43.135Z,-4.79
2018-02-26T03:12:10.187Z,-4.84
2018-02-26T03:13:38.046Z,-4.87
2018-02-26T03:15:05.101Z,-4.90
2018-02-26T03:16:30.999Z,-4.93
2018-02-26T03:17:58.006Z,-4.97
2018-02-26T03:19:24.938Z,-5.01
2018-02-26T03:20:52.758Z,-5.03
2018-02-26T03:22:18.715Z,-5.04
2018-02-26T03:23:46.733Z,-5.02
2018-02-26T03:25:13.702Z,-5.02
2018-02-26T03:26:39.497Z,-4.95
2018-02-26T03:28:07.479Z,-4.91
2018-02-26T03:29:33.499Z,-4.87
2018-02-26T03:31:01.351Z,-4.82
2018-02-26T03:32:27.301Z,-4.80
2018-02-26T03:33:55.236Z,-4.81
2018-02-26T03:35:22.288Z,-4.85
2018-02-26T03:36:49.159Z,-4.99
2018-02-26T03:38:15.985Z,-5.08
2018-02-26T03:39:43.106Z,-5.10
2018-02-26T03:41:09.042Z,-5.16
2018-02-26T03:42:36.830Z,-5.16
2018-02-26T03:44:03.757Z,-5.16
2018-02-26T03:45:30.650Z,-5.14
2018-02-26T03:46:57.581Z,-5.09
2018-02-26T03:48:24.496Z,-5.09
2018-02-26T03:49:51.314Z,-5.09
2018-02-26T03:51:18.054Z,-5.14
2018-02-26T03:52:44.857Z,-5.20
2018-02-26T03:54:10.853Z,-5.27
2018-02-26T03:55:38.861Z,-5.25
2018-02-26T03:57:05.754Z,-5.24
2018-02-26T03:58:32.583Z,-5.23
2018-02-26T03:59:58.472Z,-5.35
2018-02-26T04:01:26.503Z,-5.42
2018-02-26T04:02:51.980Z,-5.58
2018-02-26T04:04:20.020Z,-5.70
2018-02-26T04:05:47.090Z,-5.80
2018-02-26T04:07:13.924Z,-5.92
2018-02-26T04:08:40.928Z,-6.02
2018-02-26T04:10:07.733Z,-6.11
2018-02-26T04:11:33.655Z,-6.14
2018-02-26T04:13:01.683Z,-6.17
2018-02-26T04:14:28.285Z,-6.21
2018-02-26T04:15:55.293Z,-6.22
2018-02-26T04:17:22.291Z,-6.25
2018-02-26T04:18:48.169Z,-6.28
2018-02-26T04:20:16.035Z,-6.28
2018-02-26T04:21:42.982Z,-6.29
2018-02-26T04:23:08.923Z,-6.29
2018-02-26T04:24:36.884Z,-6.28
2018-02-26T04:26:03.786Z,-6.27
2018-02-26T04:27:30.627Z,-6.27
2018-02-26T04:28:57.477Z,-6.25
2018-02-26T04:30:23.530Z,-6.25
2018-02-26T04:31:51.538Z,-6.26
2018-02-26T04:33:17.430Z,-6.25
2018-02-26T04:34:45.463Z,-6.22
2018-02-26T04:36:11.184Z,-6.17
2018-02-26T04:37:39.129Z,-6.11
2018-02-26T04:39:06.223Z,-6.04
2018-02-26T04:40:32.861Z,-5.97
2018-02-26T04:41:58.801Z,-5.90
2018-02-26T04:43:26.830Z,-5.84
2018-02-26T04:44:53.564Z,-5.81
2018-02-26T04:46:19.284Z,-5.77
2018-02-26T04:47:46.210Z,-5.74
2018-02-26T04:49:14.071Z,-5.72
2018-02-26T04:50:41.857Z,-5.72
2018-02-26T04:52:07.039Z,-5.72
2018-02-26T04:53:34.877Z,-5.74
2018-02-26T04:55:00.818Z,-5.79
2018-02-26T04:56:28.820Z,-5.82
2018-02-26T04:57:54.555Z,-5.86
2018-02-26T04:59:22.517Z,-5.92
2018-02-26T05:00:49.363Z,-5.97
2018-02-26T05:02:16.214Z,-6.05
2018-02-26T05:03:43.201Z,-6.14
2018-02-26T05:05:10.126Z,-6.19
2018-02-26T05:06:36.972Z,-6.21
2018-02-26T05:08:02.753Z,-6.19
2018-02-26T05:09:30.777Z,-6.18
2018-02-26T05:10:57.784Z,-6.28
2018-02-26T05:12:24.526Z,-6.40
2018-02-26T05:13:51.313Z,-6.49
2018-02-26T05:15:18.363Z,-6.54
2018-02-26T05:16:45.194Z,-6.57
2018-02-26T05:18:12.087Z,-6.57
2018-02-26T05:19:39.013Z,-6.54
2018-02-26T05:21:04.947Z,-6.48
2018-02-26T05:22:31.623Z,-6.38
2018-02-26T05:23:59.525Z,-6.26
2018-02-26T05:25:26.453Z,-6.16
2018-02-26T05:26:53.312Z,-6.08
2018-02-26T05:28:22.216Z,-6.02
2018-02-26T05:29:49.202Z,-5.98
2018-02-26T05:31:14.013Z,-5.96
2018-02-26T05:32:40.009Z,-5.92
2018-02-26T05:34:07.676Z,-5.95
2018-02-26T05:35:35.398Z,-6.07
2018-02-26T05:37:01.290Z,-6.21
2018-02-26T05:38:27.302Z,-6.28
2018-02-26T05:39:55.293Z,-6.28
2018-02-26T05:41:22.124Z,-6.23
2018-02-26T05:42:49.153Z,-6.14
2018-02-26T05:44:16.138Z,-6.06
2018-02-26T05:45:41.873Z,-6.02
2018-02-26T05:47:08.797Z,-5.99
2018-02-26T05:48:36.849Z,-5.97
2018-02-26T05:50:03.736Z,-5.96
2018-02-26T05:51:30.650Z,-5.98
2018-02-26T05:52:57.614Z,-6.02
2018-02-26T05:54:23.487Z,-6.07
2018-02-26T05:55:51.158Z,-6.07
2018-02-26T05:57:18.013Z,-6.01
2018-02-26T05:58:44.852Z,-5.97
2018-02-26T06:00:11.632Z,-5.91
2018-02-26T06:01:37.617Z,-5.85
2018-02-26T06:03:05.622Z,-5.79
2018-02-26T06:04:32.660Z,-5.73
2018-02-26T06:05:58.596Z,-5.68
2018-02-26T06:07:26.550Z,-5.62
2018-02-26T06:08:52.623Z,-5.58
2018-02-26T06:10:20.545Z,-5.51
2018-02-26T06:11:52.608Z,-5.46
2018-02-26T06:13:14.416Z,-5.40
2018-02-26T06:14:40.202Z,-5.36
2018-02-26T06:16:08.201Z,-5.30
2018-02-26T06:17:35.025Z,-5.25
2018-02-26T06:19:01.954Z,-5.21
2018-02-26T06:20:27.842Z,-5.18
2018-02-26T06:21:55.857Z,-5.15
2018-02-26T06:23:22.809Z,-5.12
2018-02-26T06:24:49.775Z,-5.11
2018-02-26T06:26:15.317Z,-5.09
2018-02-26T06:27:42.132Z,-5.05
2018-02-26T06:29:09.944Z,-5.01
2018-02-26T06:30:36.902Z,-4.98
2018-02-26T06:32:03.750Z,-4.95
2018-02-26T06:33:29.528Z,-4.91
2018-02-26T06:34:57.515Z,-4.88
2018-02-26T06:36:24.488Z,-4.87
2018-02-26T06:37:50.678Z,-4.90
2018-02-26T06:39:18.550Z,-4.93
2018-02-26T06:40:44.603Z,-4.97
2018-02-26T06:42:12.517Z,-5.00
2018-02-26T06:43:39.541Z,-5.03
2018-02-26T06:45:06.321Z,-5.03
2018-02-26T06:46:33.061Z,-5.02
2018-02-26T06:47:59.169Z,-4.99
2018-02-26T06:49:27.181Z,-4.96
2018-02-26T06:50:54.080Z,-4.92
2018-02-26T06:52:20.180Z,-4.86
2018-02-26T06:53:46.740Z,-4.80
2018-02-26T06:55:13.595Z,-4.73
2018-02-26T06:56:41.249Z,-4.66
2018-02-26T06:58:07.001Z,-4.55
2018-02-26T06:59:34.931Z,-4.44
2018-02-26T07:01:01.657Z,-4.33
2018-02-26T07:02:28.534Z,-4.25
2018-02-26T07:03:55.315Z,-4.18
2018-02-26T07:05:27.606Z,-4.14
2018-02-26T07:06:48.826Z,-4.09
2018-02-26T07:08:15.636Z,-4.05
2018-02-26T07:09:43.590Z,-4.02
2018-02-26T07:11:10.512Z,-3.97
2018-02-26T07:12:37.373Z,-3.91
2018-02-26T07:14:04.040Z,-3.83
2018-02-26T07:15:30.200Z,-3.80
2018-02-26T07:16:58.317Z,-3.78
2018-02-26T07:18:25.416Z,-3.78
2018-02-26T07:19:52.352Z,-3.79
2018-02-26T07:21:19.021Z,-3.81
2018-02-26T07:22:45.049Z,-3.83
2018-02-26T07:24:12.085Z,-3.83
2018-02-26T07:25:40.171Z,-3.83
2018-02-26T07:27:06.937Z,-3.81
2018-02-26T07:28:34.063Z,-3.79
2018-02-26T07:30:00.909Z,-3.74
2018-02-26T07:31:27.969Z,-3.73
2018-02-26T07:32:53.946Z,-3.74
2018-02-26T07:34:21.022Z,-3.76
2018-02-26T07:35:47.994Z,-3.79
2018-02-26T07:37:16.164Z,-3.83
2018-02-26T07:38:42.965Z,-3.82
2018-02-26T07:40:10.004Z,-3.82
2018-02-26T07:41:37.059Z,-3.83
2018-02-26T07:43:04.008Z,-3.82
2018-02-26T07:44:31.006Z,-3.83
2018-02-26T07:45:57.037Z,-3.85
2018-02-26T07:47:23.947Z,-3.84
2018-02-26T07:48:51.695Z,-3.84
2018-02-26T07:50:17.728Z,-3.81
2018-02-26T07:51:44.632Z,-3.75
2018-02-26T07:53:12.659Z,-3.68
2018-02-26T07:54:39.365Z,-3.56
2018-02-26T07:56:06.094Z,-3.44
2018-02-26T07:57:31.908Z,-3.35
2018-02-26T07:58:59.847Z,-3.26
2018-02-26T08:00:25.963Z,-3.16
2018-02-26T08:01:53.978Z,-3.05
2018-02-26T08:03:20.595Z,-2.97
2018-02-26T08:04:46.547Z,-2.92
2018-02-26T08:06:13.468Z,-2.85
2018-02-26T08:07:41.316Z,-2.76
2018-02-26T08:09:08.299Z,-2.70
2018-02-26T08:10:34.205Z,-2.66
2018-02-26T08:12:01.205Z,-2.69
2018-02-26T08:13:28.169Z,-2.73
2018-02-26T08:14:55.816Z,-2.77
2018-02-26T08:16:22.721Z,-2.79
2018-02-26T08:17:48.691Z,-2.77
2018-02-26T08:19:16.855Z,-2.74
2018-02-26T08:20:43.629Z,-2.71
2018-02-26T08:22:09.424Z,-2.70
2018-02-26T08:23:37.605Z,-2.67
2018-02-26T08:25:04.385Z,-2.67
2018-02-26T08:26:31.309Z,-2.73
2018-02-26T08:27:57.933Z,-2.75
2018-02-26T08:29:25.042Z,-2.80
2018-02-26T08:30:51.774Z,-2.85
2018-02-26T08:32:18.329Z,-2.86
2018-02-26T08:33:45.229Z,-2.84
2018-02-26T08:35:11.371Z,-2.79
2018-02-26T08:36:39.206Z,-2.73
2018-02-26T08:38:06.021Z,-2.66
2018-02-26T08:39:32.809Z,-2.60
2018-02-26T08:40:59.910Z,-2.52
2018-02-26T08:42:25.725Z,-2.43
2018-02-26T08:43:52.496Z,-2.36
2018-02-26T08:45:19.486Z,-2.35
2018-02-26T08:46:47.601Z,-2.33
2018-02-26T08:48:13.523Z,-2.29
2018-02-26T08:49:41.534Z,-2.27
2018-02-26T08:51:08.549Z,-2.25
2018-02-26T08:52:35.705Z,-2.24
2018-02-26T08:54:02.710Z,-2.24
2018-02-26T08:55:28.881Z,-2.21
2018-02-26T08:56:57.010Z,-2.16
2018-02-26T08:58:24.268Z,-2.15
2018-02-26T08:59:51.261Z,-2.15
2018-02-26T09:01:17.276Z,-2.09
2018-02-26T09:02:45.107Z,-2.02
2018-02-26T09:04:12.107Z,-2.03
2018-02-26T09:05:38.026Z,-2.00
2018-02-26T09:07:05.147Z,-2.01
2018-02-26T09:08:32.873Z,-2.03
2018-02-26T09:09:59.730Z,-2.09
2018-02-26T09:11:26.870Z,-2.10
2018-02-26T09:12:52.861Z,-2.08
2018-02-26T09:14:20.931Z,-2.08
2018-02-26T09:15:47.098Z,-1.99
2018-02-26T09:17:15.102Z,-1.92
2018-02-26T09:18:41.151Z,-1.82
2018-02-26T09:20:08.266Z,-1.71
2018-02-26T09:21:36.161Z,-1.64
2018-02-26T09:23:03.092Z,-1.64
2018-02-26T09:24:30.256Z,-1.65
2018-02-26T09:25:56.299Z,-1.67
2018-02-26T09:27:24.234Z,-1.66
2018-02-26T09:28:51.295Z,-1.58
2018-02-26T09:30:17.430Z,-1.52
2018-02-26T09:31:45.463Z,-1.44
2018-02-26T09:33:11.586Z,-1.48
2018-02-26T09:34:38.598Z,-1.51
2018-02-26T09:36:05.618Z,-1.53
2018-02-26T09:37:32.893Z,-1.56
2018-02-26T09:38:59.920Z,-1.59
2018-02-26T09:40:26.895Z,-1.62
2018-02-26T09:41:54.876Z,-1.66
2018-02-26T09:43:22.085Z,-1.73
2018-02-26T09:44:48.154Z,-1.77
2018-02-26T09:46:16.169Z,-1.74
2018-02-26T09:47:42.221Z,-1.79
2018-02-26T09:49:10.327Z,-1.83
2018-02-26T09:50:37.416Z,-1.76
2018-02-26T09:52:03.342Z,-1.70
2018-02-26T09:53:30.398Z,-1.62
2018-02-26T09:54:58.399Z,-1.56
2018-02-26T09:56:25.458Z,-1.51
2018-02-26T09:57:52.584Z,-1.47
2018-02-26T09:59:19.592Z,-1.43
2018-02-26T10:00:45.371Z,-1.40
2018-02-26T10:02:13.391Z,-1.33
2018-02-26T10:03:39.470Z,-1.27
2018-02-26T10:05:07.140Z,-1.25
2018-02-26T10:06:34.257Z,-1.26
2018-02-26T10:08:01.137Z,-1.22
2018-02-26T10:09:28.294Z,-1.16
2018-02-26T10:10:55.461Z,-1.10
2018-02-26T10:12:22.564Z,-1.17
2018-02-26T10:13:49.486Z,-1.14
2018-02-26T10:15:15.418Z,-1.18
2018-02-26T10:16:43.578Z,-1.16
2018-02-26T10:18:10.546Z,-1.11
2018-02-26T10:19:37.618Z,-1.11
2018-02-26T10:21:04.534Z,-1.13
2018-02-26T10:22:30.584Z,-1.18
2018-02-26T10:23:57.276Z,-1.20
2018-02-26T10:25:25.269Z,-1.19
2018-02-26T10:26:52.345Z,-1.25
2018-02-26T10:28:19.331Z,-1.26
2018-02-26T10:29:46.533Z,-1.28
2018-02-26T10:31:12.707Z,-1.27
2018-02-26T10:32:40.811Z,-1.25
2018-02-26T10:34:07.903Z,-1.19
2018-02-26T10:35:34.853Z,-1.13
2018-02-26T10:37:01.118Z,-1.10
2018-02-26T10:38:28.355Z,-1.12
2018-02-26T10:39:55.474Z,-1.11
2018-02-26T10:41:22.435Z,-1.08
2018-02-26T10:42:50.480Z,-1.08
2018-02-26T10:44:16.555Z,-1.12
2018-02-26T10:45:43.758Z,-1.17
2018-02-26T10:47:11.877Z,-1.19
2018-02-26T10:48:38.871Z,-1.20
2018-02-26T10:50:05.732Z,-1.17
2018-02-26T10:51:31.474Z,-1.15
2018-02-26T10:52:58.704Z,-1.13
2018-02-26T10:54:26.847Z,-1.10
2018-02-26T10:55:53.761Z,-1.07
2018-02-26T10:57:20.999Z,-1.01
2018-02-26T10:58:47.156Z,-0.99
2018-02-26T11:00:15.320Z,-1.02
2018-02-26T11:01:42.132Z,-1.03
2018-02-26T11:03:08.230Z,-1.06
2018-02-26T11:04:36.205Z,-1.01
2018-02-26T11:06:02.945Z,-0.98
2018-02-26T11:07:30.215Z,-0.97
2018-02-26T11:08:56.143Z,-0.96
2018-02-26T11:10:24.362Z,-0.95
2018-02-26T11:11:50.356Z,-0.92
2018-02-26T11:13:18.592Z,-0.90
2018-02-26T11:14:45.609Z,-0.84
2018-02-26T11:16:12.185Z,-0.76
2018-02-26T11:17:38.143Z,-0.68
2018-02-26T11:19:06.237Z,-0.59
2018-02-26T11:20:33.059Z,-0.52
2018-02-26T11:22:00.051Z,-0.43
2018-02-26T11:23:25.794Z,-0.40
2018-02-26T11:24:53.043Z,-0.39
2018-02-26T11:26:21.160Z,-0.41
2018-02-26T11:27:48.269Z,-0.50
2018-02-26T11:29:15.460Z,-0.53
2018-02-26T11:30:42.629Z,-0.54
2018-02-26T11:32:08.853Z,-0.60
2018-02-26T11:33:36.740Z,-0.63
2018-02-26T11:35:03.681Z,-0.69
2018-02-26T11:36:30.621Z,-0.76
2018-02-26T11:37:56.768Z,-0.83
2018-02-26T11:39:24.669Z,-0.99
2018-02-26T11:40:51.842Z,-1.09
2018-02-26T11:42:18.807Z,-1.13
2018-02-26T11:43:45.077Z,-1.13
2018-02-26T11:45:12.125Z,-1.08
2018-02-26T11:46:39.196Z,-1.04
2018-02-26T11:48:06.204Z,-1.05
2018-02-26T11:49:32.953Z,-1.00
2018-02-26T11:51:01.078Z,-1.04
2018-02-26T11:52:27.232Z,-1.08
2018-02-26T11:53:55.324Z,-1.11
2018-02-26T11:55:22.195Z,-1.22
2018-02-26T11:56:49.172Z,-1.26
2018-02-26T11:58:16.320Z,-1.27
2018-02-26T11:59:42.317Z,-1.22
2018-02-26T12:01:10.343Z,-1.17
2018-02-26T12:02:36.354Z,-1.11
2018-02-26T12:04:04.337Z,-1.04
2018-02-26T12:05:30.522Z,-1.04
2018-02-26T12:06:57.653Z,-1.02
2018-02-26T12:08:25.417Z,-0.97
2018-02-26T12:09:51.604Z,-1.02
2018-02-26T12:11:18.564Z,-1.06
2018-02-26T12:12:46.702Z,-1.01
2018-02-26T12:14:13.823Z,-1.01
2018-02-26T12:15:39.806Z,-1.07
2018-02-26T12:17:07.791Z,-1.15
2018-02-26T12:18:34.834Z,-1.12
2018-02-26T12:20:01.898Z,-1.02
2018-02-26T12:21:27.994Z,-0.95
2018-02-26T12:22:55.999Z,-0.95
2018-02-26T12:24:23.049Z,-1.03
2018-02-26T12:25:49.061Z,-1.16
2018-02-26T12:27:17.008Z,-1.24
2018-02-26T12:28:43.106Z,-1.22
2018-02-26T12:30:10.049Z,-1.27
2018-02-26T12:31:37.945Z,-1.26
2018-02-26T12:33:03.786Z,-1.12
2018-02-26T12:34:30.908Z,-1.04
2018-02-26T12:35:58.898Z,-0.86
2018-02-26T12:37:26.134Z,-0.70
2018-02-26T12:38:52.112Z,-0.54
2018-02-26T12:40:20.002Z,-0.43
2018-02-26T12:41:46.983Z,-0.31
2018-02-26T12:43:14.085Z,-0.26
2018-02-26T12:44:41.270Z,-0.12
2018-02-26T12:46:08.240Z,-0.07
2018-02-26T12:47:34.194Z,0.10
2018-02-26T12:49:02.228Z,0.19
2018-02-26T12:50:29.279Z,0.14
2018-02-26T12:51:56.445Z,-0.01
2018-02-26T12:53:23.613Z,-0.10
2018-02-26T12:54:50.780Z,-0.21
2018-02-26T12:56:17.810Z,-0.19
2018-02-26T12:57:44.812Z,-0.30
2018-02-26T12:59:10.730Z,-0.44
2018-02-26T13:00:37.668Z,-0.53
2018-02-26T13:02:04.812Z,-0.62
2018-02-26T13:03:32.031Z,-0.55
2018-02-26T13:05:00.069Z,-0.51
2018-02-26T13:06:27.065Z,-0.56
2018-02-26T13:07:53.218Z,-0.55
2018-02-26T13:09:20.410Z,-0.42
2018-02-26T13:10:47.469Z,-0.26
2018-02-26T13:12:14.840Z,-0.28
2018-02-26T13:13:42.960Z,-0.30
2018-02-26T13:15:10.018Z,-0.35
2018-02-26T13:16:36.973Z,-0.37
2018-02-26T13:18:03.094Z,-0.41
2018-02-26T13:19:30.113Z,-0.43
2018-02-26T13:20:58.159Z,-0.47
2018-02-26T13:22:24.374Z,-0.47
2018-02-26T13:23:52.408Z,-0.44
2018-02-26T13:25:18.683Z,-0.34
2018-02-26T13:26:46.846Z,-0.29
2018-02-26T13:28:13.042Z,-0.26
2018-02-26T13:29:40.237Z,-0.26
2018-02-26T13:31:08.325Z,-0.29
2018-02-26T13:32:34.345Z,-0.18
2018-02-26T13:34:02.594Z,-0.15
2018-02-26T13:35:29.699Z,-0.17
2018-02-26T13:36:56.866Z,-0.25
2018-02-26T13:38:24.048Z,-0.31
2018-02-26T13:39:50.164Z,-0.28
2018-02-26T13:41:18.373Z,-0.36
2018-02-26T13:42:45.522Z,-0.48
2018-02-26T13:44:12.482Z,-0.60
2018-02-26T13:45:38.683Z,-0.57
2018-02-26T13:47:05.911Z,-0.58
2018-02-26T13:48:32.707Z,-0.50
2018-02-26T13:50:00.640Z,-0.43
2018-02-26T13:51:27.676Z,-0.48
2018-02-26T13:52:53.782Z,-0.54
2018-02-26T13:54:21.709Z,-0.64
2018-02-26T13:55:47.703Z,-0.67
2018-02-26T13:57:15.657Z,-0.73
2018-02-26T13:58:42.563Z,-0.87
2018-02-26T14:00:09.728Z,-0.95
2018-02-26T14:01:36.793Z,-1.03
2018-02-26T14:03:02.983Z,-1.11
2018-02-26T14:04:30.151Z,-1.18
2018-02-26T14:05:58.146Z,-1.28
2018-02-26T14:07:25.229Z,-1.36
2018-02-26T14:08:52.128Z,-1.48
2018-02-26T14:10:18.064Z,-1.58
2018-02-26T14:11:45.108Z,-1.60
2018-02-26T14:13:12.074Z,-1.69
2018-02-26T14:14:40.021Z,-1.71
2018-02-26T14:16:06.803Z,-1.76
2018-02-26T14:17:32.711Z,-1.82
2018-02-26T14:18:59.550Z,-1.83
2018-02-26T14:20:27.593Z,-1.84
2018-02-26T14:21:54.383Z,-1.84
2018-02-26T14:23:21.466Z,-1.89
2018-02-26T14:24:48.523Z,-1.96
2018-02-26T14:26:15.477Z,-1.99
2018-02-26T14:27:42.392Z,-2.01
2018-02-26T14:29:08.235Z,-2.00
2018-02-26T14:30:36.397Z,-2.01
2018-02-26T14:32:03.113Z,-2.03
2018-02-26T14:33:28.983Z,-2.05
2018-02-26T14:34:57.052Z,-2.05
2018-02-26T14:36:23.842Z,-2.06
2018-02-26T14:37:50.790Z,-2.05
2018-02-26T14:39:17.930Z,-2.07
2018-02-26T14:40:44.933Z,-2.07
2018-02-26T14:42:10.864Z,-2.07
2018-02-26T14:43:37.993Z,-2.10
2018-02-26T14:45:04.887Z,-2.11
2018-02-26T14:46:31.819Z,-2.15
2018-02-26T14:47:58.898Z,-2.20
2018-02-26T14:49:26.984Z,-2.27
2018-02-26T14:50:52.938Z,-2.32
2018-02-26T14:52:21.069Z,-2.36
2018-02-26T14:53:48.101Z,-2.38
2018-02-26T14:55:15.173Z,-2.39
2018-02-26T14:56:41.069Z,-2.38
2018-02-26T14:58:08.146Z,-2.35
2018-02-26T14:59:36.044Z,-2.33
2018-02-26T15:01:01.991Z,-2.32
2018-02-26T15:02:28.968Z,-2.33
2018-02-26T15:03:56.040Z,-2.35
2018-02-26T15:05:24.000Z,-2.36
2018-02-26T15:06:49.954Z,-2.34
2018-02-26T15:08:17.150Z,-2.31
2018-02-26T15:09:44.299Z,-2.29
2018-02-26T15:11:12.214Z,-2.30
2018-02-26T15:12:39.077Z,-2.30
2018-02-26T15:14:06.001Z,-2.28
2018-02-26T15:15:32.727Z,-2.28
2018-02-26T15:16:58.888Z,-2.27
2018-02-26T15:18:26.872Z,-2.28
2018-02-26T15:19:53.744Z,-2.28
2018-02-26T15:21:19.694Z,-2.28
2018-02-26T15:22:47.749Z,-2.27
2018-02-26T15:24:14.801Z,-2.28
2018-02-26T15:25:40.712Z,-2.28
2018-02-26T15:27:08.725Z,-2.31
2018-02-26T15:28:35.695Z,-2.33
2018-02-26T15:30:02.829Z,-2.35
2018-02-26T15:31:29.753Z,-2.35
2018-02-26T15:32:56.826Z,-2.32
2018-02-26T15:34:22.868Z,-2.33
2018-02-26T15:35:50.944Z,-2.33
2018-02-26T15:37:17.781Z,-2.34
2018-02-26T15:38:43.758Z,-2.37
2018-02-26T15:40:11.730Z,-2.39
2018-02-26T15:41:37.694Z,-2.42
2018-02-26T15:43:04.660Z,-2.43
2018-02-26T15:44:31.870Z,-2.42
2018-02-26T15:45:58.782Z,-2.42
2018-02-26T15:47:26.913Z,-2.42
2018-02-26T15:48:53.080Z,-2.42
2018-02-26T15:50:21.108Z,-2.41
2018-02-26T15:51:48.180Z,-2.41
2018-02-26T15:53:14.164Z,-2.43
2018-02-26T15:54:42.104Z,-2.46
2018-02-26T15:56:09.369Z,-2.51
2018-02-26T15:57:35.303Z,-2.54
2018-02-26T15:59:03.293Z,-2.55
2018-02-26T16:00:30.609Z,-2.55
2018-02-26T16:01:57.673Z,-2.56
2018-02-26T16:03:26.853Z,-2.56
2018-02-26T16:04:50.915Z,-2.57
2018-02-26T16:06:19.004Z,-2.56
2018-02-26T16:07:46.157Z,-2.54
2018-02-26T16:09:12.123Z,-2.54
2018-02-26T16:10:39.045Z,-2.54
2018-02-26T16:12:07.031Z,-2.53
2018-02-26T16:13:33.839Z,-2.54
2018-02-26T16:15:00.867Z,-2.56
2018-02-26T16:16:27.826Z,-2.57
2018-02-26T16:17:54.783Z,-2.60
2018-02-26T16:19:21.847Z,-2.63
2018-02-26T16:20:48.782Z,-2.65
2018-02-26T16:22:15.667Z,-2.67
2018-02-26T16:23:41.544Z,-2.69
2018-02-26T16:25:08.594Z,-2.69
2018-02-26T16:26:36.574Z,-2.68
2018-02-26T16:28:03.516Z,-2.69
2018-02-26T16:29:30.486Z,-2.69
2018-02-26T16:30:56.377Z,-2.69
2018-02-26T16:32:24.321Z,-2.69
2018-02-26T16:33:50.362Z,-2.71
2018-02-26T16:35:17.496Z,-2.72
2018-02-26T16:36:45.605Z,-2.72
2018-02-26T16:38:12.413Z,-2.73
2018-02-26T16:39:39.377Z,-2.74
2018-02-26T16:41:06.273Z,-2.73
2018-02-26T16:42:32.005Z,-2.77
2018-02-26T16:43:59.136Z,-2.78
2018-02-26T16:45:27.192Z,-2.79
2018-02-26T16:46:54.078Z,-2.81
2018-02-26T16:48:20.046Z,-2.81
2018-02-26T16:49:47.978Z,-2.85
2018-02-26T16:51:14.138Z,-2.86
2018-02-26T16:52:42.189Z,-2.90
2018-02-26T16:54:08.269Z,-2.94
2018-02-26T16:55:36.460Z,-2.98
2018-02-26T16:57:03.325Z,-3.03
2018-02-26T16:58:29.213Z,-3.09
2018-02-26T16:59:56.297Z,-3.12
2018-02-26T17:01:24.335Z,-3.13
2018-02-26T17:02:50.317Z,-3.15
2018-02-26T17:04:18.236Z,-3.15
2018-02-26T17:05:44.095Z,-3.16
2018-02-26T17:07:11.142Z,-3.15
2018-02-26T17:08:38.162Z,-3.16
2018-02-26T17:10:06.233Z,-3.16
2018-02-26T17:11:33.059Z,-3.18
2018-02-26T17:12:59.965Z,-3.18
2018-02-26T17:14:26.762Z,-3.18
2018-02-26T17:15:52.626Z,-3.19
2018-02-26T17:17:20.654Z,-3.21
2018-02-26T17:18:46.540Z,-3.24
2018-02-26T17:20:14.652Z,-3.28
2018-02-26T17:21:41.558Z,-3.31
2018-02-26T17:23:08.473Z,-3.35
2018-02-26T17:24:35.204Z,-3.39
2018-02-26T17:26:01.068Z,-3.43
2018-02-26T17:27:29.177Z,-3.46
2018-02-26T17:29:05.869Z,-3.48
2018-02-26T17:30:32.426Z,-3.50
2018-02-26T17:31:59.335Z,-3.53
2018-02-26T17:33:26.323Z,-3.56
2018-02-26T17:34:53.037Z,-3.61
2018-02-26T17:36:19.903Z,-3.66
2018-02-26T17:37:47.026Z,-3.68
2018-02-26T17:39:13.842Z,-3.68
2018-02-26T17:40:40.903Z,-3.69
2018-02-26T17:42:07.787Z,-3.65
2018-02-26T17:43:34.640Z,-3.60
2018-02-26T17:45:01.183Z,-3.58
2018-02-26T17:46:28.141Z,-3.55
2018-02-26T17:47:53.958Z,-3.53
2018-02-26T17:49:21.915Z,-3.48
2018-02-26T17:50:48.543Z,-3.48
2018-02-26T17:52:15.314Z,-3.45
2018-02-26T17:53:42.162Z,-3.40
2018-02-26T17:55:09.234Z,-3.37
2018-02-26T17:56:35.025Z,-3.37
2018-02-26T17:58:01.824Z,-3.38
2018-02-26T17:59:29.839Z,-3.36
2018-02-26T18:00:56.876Z,-3.37
2018-02-26T18:02:23.945Z,-3.36
2018-02-26T18:03:50.045Z,-3.35
2018-02-26T18:05:18.115Z,-3.33
2018-02-26T18:06:44.077Z,-3.29
2018-02-26T18:08:11.986Z,-3.31
2018-02-26T18:09:38.959Z,-3.29
2018-02-26T18:11:06.046Z,-3.27
2018-02-26T18:12:31.823Z,-3.27
2018-02-26T18:13:58.760Z,-3.25
2018-02-26T18:15:25.807Z,-3.25
2018-02-26T18:16:53.984Z,-3.26
2018-02-26T18:18:19.957Z,-3.24
2018-02-26T18:19:47.929Z,-3.23
2018-02-26T18:21:15.030Z,-3.24
2018-02-26T18:22:40.899Z,-3.24
2018-02-26T18:24:09.131Z,-3.24
2018-02-26T18:25:36.034Z,-3.23
2018-02-26T18:27:01.911Z,-3.23
2018-02-26T18:28:29.898Z,-3.23
2018-02-26T18:58:57.155Z,-2.99
2018-02-26T19:00:24.216Z,-2.95
2018-02-26T19:01:51.205Z,-2.94
2018-02-26T19:03:17.089Z,-2.92
2018-02-26T19:04:45.200Z,-2.87
2018-02-26T19:06:12.197Z,-2.83
2018-02-26T19:07:38.089Z,-2.78
2018-02-26T19:09:05.779Z,-2.78